createdAt,value
2017-06-08T00:02:11.791Z,4.40
2017-06-08T00:04:40.008Z,4.30
2017-06-08T00:07:08.542Z,5.30
2017-06-08T00:09:36.751Z,4.53
2017-06-08T00:12:04.963Z,5.50
2017-06-08T00:14:33.163Z,5.10
2017-06-08T00:17:01.371Z,4.43
2017-06-08T00:19:29.988Z,3.90
2017-06-08T00:21:58.174Z,4.67
2017-06-08T00:24:26.370Z,4.30
2017-06-08T00:26:54.553Z,4.40
2017-06-08T00:29:23.489Z,5.17
2017-06-08T00:31:52.098Z,4.50
2017-06-08T00:34:20.295Z,5.90
2017-06-08T00:36:48.497Z,5.97
2017-06-08T00:39:16.715Z,4.63
2017-06-08T00:41:44.936Z,5.57
2017-06-08T00:44:13.591Z,6.40
2017-06-08T00:46:41.774Z,4.80
2017-06-08T00:49:09.960Z,4.80
2017-06-08T00:51:38.186Z,5.63
2017-06-08T00:54:06.367Z,4.90
2017-06-08T00:56:34.966Z,5.70
2017-06-08T00:59:03.203Z,5.33
2017-06-08T01:01:31.388Z,5.70
2017-06-08T01:03:59.611Z,5.17
2017-06-08T01:06:28.587Z,5.27
2017-06-08T01:08:57.973Z,5.40
2017-06-08T01:11:26.155Z,4.30
2017-06-08T01:13:54.364Z,5.00
2017-06-08T01:16:22.657Z,5.17
2017-06-08T01:18:50.845Z,5.27
2017-06-08T01:21:19.435Z,7.17
2017-06-08T01:23:47.635Z,6.80
2017-06-08T01:26:15.847Z,5.30
2017-06-08T01:28:44.087Z,6.63
2017-06-08T01:31:12.272Z,5.57
2017-06-08T01:33:41.597Z,6.07
2017-06-08T01:36:09.807Z,5.77
2017-06-08T01:38:38.033Z,6.17
2017-06-08T01:41:06.246Z,5.83
2017-06-08T01:43:34.444Z,5.80
2017-06-08T01:46:02.635Z,5.90
2017-06-08T01:48:31.628Z,5.30
2017-06-08T01:50:59.802Z,6.10
2017-06-08T01:53:29.252Z,5.27
2017-06-08T01:55:57.429Z,5.60
2017-06-08T01:58:25.622Z,4.90
2017-06-08T02:00:53.869Z,4.23
2017-06-08T02:03:22.061Z,6.10
2017-06-08T02:05:50.692Z,4.97
2017-06-08T02:08:19.640Z,5.03
2017-06-08T02:10:47.807Z,3.83
2017-06-08T02:13:16.025Z,4.37
2017-06-08T02:15:44.196Z,5.13
2017-06-08T02:18:12.757Z,5.40
2017-06-08T02:20:40.962Z,5.13
2017-06-08T02:23:09.241Z,6.13
2017-06-08T02:25:37.518Z,5.80
2017-06-08T02:28:05.720Z,4.20
2017-06-08T02:30:34.258Z,4.80
2017-06-08T02:33:03.218Z,4.47
2017-06-08T02:35:31.492Z,5.50
2017-06-08T02:37:59.705Z,4.60
2017-06-08T02:40:27.917Z,5.20
2017-06-08T02:42:56.525Z,5.53
2017-06-08T02:45:24.706Z,4.80
2017-06-08T02:47:52.930Z,4.90
2017-06-08T02:50:21.229Z,4.30
2017-06-08T02:52:49.427Z,4.57
2017-06-08T02:55:18.010Z,4.07
2017-06-08T02:57:46.201Z,5.40
2017-06-08T03:00:14.375Z,5.40
2017-06-08T03:02:42.570Z,5.10
2017-06-08T03:05:10.746Z,4.87
2017-06-08T03:07:39.383Z,4.90
2017-06-08T03:10:07.556Z,5.10
2017-06-08T03:12:35.760Z,5.03
2017-06-08T03:15:05.135Z,5.70
2017-06-08T03:17:33.343Z,5.33
2017-06-08T03:20:01.552Z,4.93
2017-06-08T03:22:30.075Z,4.67
2017-06-08T03:24:59.022Z,4.60
2017-06-08T03:27:27.232Z,4.93
2017-06-08T03:29:55.835Z,5.27
2017-06-08T03:32:24.062Z,4.13
2017-06-08T03:34:52.278Z,4.30
2017-06-08T03:37:20.826Z,4.37
2017-06-08T03:39:49.009Z,4.43
2017-06-08T03:42:17.217Z,5.10
2017-06-08T03:44:46.671Z,5.10
2017-06-08T03:47:14.874Z,5.17
2017-06-08T03:49:43.827Z,5.17
2017-06-08T03:52:12.333Z,6.43
2017-06-08T03:54:40.546Z,4.87
2017-06-08T03:57:08.731Z,5.60
2017-06-08T03:59:37.278Z,5.90
2017-06-08T04:02:05.478Z,5.00
2017-06-08T04:04:33.658Z,4.80
2017-06-08T04:07:02.199Z,5.00
2017-06-08T04:09:30.383Z,5.00
2017-06-08T04:11:59.413Z,6.43
2017-06-08T04:14:27.958Z,4.80
2017-06-08T04:16:56.996Z,5.30
2017-06-08T04:19:25.183Z,4.93
2017-06-08T04:21:53.753Z,5.00
2017-06-08T04:24:21.962Z,5.30
2017-06-08T04:26:50.166Z,5.07
2017-06-08T04:29:18.804Z,4.97
2017-06-08T04:31:47.008Z,5.57
2017-06-08T04:34:15.975Z,4.50
2017-06-08T04:36:44.560Z,4.60
2017-06-08T04:39:12.769Z,5.47
2017-06-08T04:41:41.011Z,5.10
2017-06-08T04:44:09.583Z,4.30
2017-06-08T04:46:37.832Z,5.10
2017-06-08T04:49:06.048Z,4.70
2017-06-08T04:51:34.742Z,4.50
2017-06-08T04:54:02.947Z,4.80
2017-06-08T04:56:31.148Z,5.33
2017-06-08T04:58:59.837Z,3.90
2017-06-08T05:01:28.062Z,4.03
2017-06-08T05:03:56.348Z,5.30
2017-06-08T05:06:25.043Z,4.80
2017-06-08T05:08:53.230Z,5.17
2017-06-08T05:11:21.437Z,4.50
2017-06-08T05:13:50.002Z,4.50
2017-06-08T05:16:18.223Z,4.20
2017-06-08T05:18:47.313Z,4.87
2017-06-08T05:21:15.836Z,4.40
2017-06-08T05:23:44.046Z,3.40
2017-06-08T05:26:12.242Z,3.70
2017-06-08T05:28:41.579Z,3.50
2017-06-08T05:31:09.776Z,4.27
2017-06-08T05:33:37.947Z,4.20
2017-06-08T05:36:06.449Z,4.07
2017-06-08T05:38:35.450Z,4.63
2017-06-08T05:41:04.426Z,3.90
2017-06-08T05:43:32.988Z,3.30
2017-06-08T05:46:01.350Z,4.27
2017-06-08T05:48:29.533Z,3.20
2017-06-08T05:50:58.071Z,3.53
2017-06-08T05:53:27.033Z,3.60
2017-06-08T05:55:55.240Z,2.93
2017-06-08T05:58:23.905Z,4.13
2017-06-08T06:00:52.944Z,4.00
2017-06-08T06:03:21.143Z,3.77
2017-06-08T06:05:49.657Z,3.60
2017-06-08T06:08:17.911Z,3.63
2017-06-08T06:10:46.109Z,2.73
2017-06-08T06:13:14.668Z,2.60
2017-06-08T06:15:42.847Z,3.53
2017-06-08T06:18:11.098Z,3.20
2017-06-08T06:20:39.809Z,3.13
2017-06-08T06:23:08.564Z,4.33
2017-06-08T06:25:36.783Z,3.43
2017-06-08T06:28:05.347Z,2.43
2017-06-08T06:30:33.532Z,2.70
2017-06-08T06:33:02.500Z,3.77
2017-06-08T06:35:31.222Z,2.73
2017-06-08T06:37:59.432Z,3.20
2017-06-08T06:40:27.646Z,2.70
2017-06-08T06:42:56.172Z,3.40
2017-06-08T06:45:24.385Z,3.10
2017-06-08T06:47:52.618Z,3.37
2017-06-08T06:50:21.252Z,2.60
2017-06-08T06:52:49.445Z,3.23
2017-06-08T06:55:18.399Z,2.53
2017-06-08T06:57:47.001Z,3.30
2017-06-08T07:00:15.219Z,3.10
2017-06-08T07:02:43.432Z,2.90
2017-06-08T07:05:11.999Z,3.30
2017-06-08T07:07:40.165Z,2.70
2017-06-08T07:10:08.399Z,3.17
2017-06-08T07:12:37.718Z,2.50
2017-06-08T07:15:05.938Z,2.90
2017-06-08T07:17:34.133Z,3.47
2017-06-08T07:20:02.678Z,3.10
2017-06-08T07:22:30.922Z,3.50
2017-06-08T07:24:59.158Z,2.17
2017-06-08T07:27:27.725Z,2.70
2017-06-08T07:29:55.928Z,4.73
2017-06-08T07:32:24.140Z,4.43
2017-06-08T07:34:52.759Z,2.70
2017-06-08T07:37:20.969Z,3.70
2017-06-08T07:39:49.179Z,4.47
2017-06-08T07:42:17.912Z,3.90
2017-06-08T07:44:46.144Z,3.50
2017-06-08T07:47:14.340Z,3.33
2017-06-08T07:49:42.924Z,3.80
2017-06-08T07:52:11.125Z,4.57
2017-06-08T07:54:39.314Z,4.00
2017-06-08T07:57:07.940Z,4.43
2017-06-08T07:59:36.163Z,3.50
2017-06-08T08:02:22.418Z,3.43
2017-06-08T08:04:50.638Z,3.33
2017-06-08T08:07:18.859Z,3.00
2017-06-08T08:09:47.391Z,4.03
2017-06-08T08:12:15.621Z,3.97
2017-06-08T08:14:43.843Z,3.07
2017-06-08T08:17:12.382Z,2.90
2017-06-08T08:19:40.577Z,3.23
2017-06-08T08:22:08.800Z,2.93
2017-06-08T08:24:37.450Z,4.07
2017-06-08T08:27:05.690Z,3.57
2017-06-08T08:29:33.889Z,3.53
2017-06-08T08:32:02.434Z,4.47
2017-06-08T08:34:30.645Z,3.73
2017-06-08T08:36:58.877Z,2.73
2017-06-08T08:39:27.495Z,2.80
2017-06-08T08:41:55.709Z,3.07
2017-06-08T08:44:23.954Z,4.30
2017-06-08T08:46:52.583Z,3.33
2017-06-08T08:49:20.845Z,3.87
2017-06-08T08:51:49.027Z,2.97
2017-06-08T08:54:17.765Z,3.10
2017-06-08T08:56:45.982Z,3.17
2017-06-08T08:59:14.187Z,3.00
2017-06-08T09:01:42.800Z,3.37
2017-06-08T09:04:11.078Z,3.17
2017-06-08T09:06:39.452Z,4.03
2017-06-08T09:09:07.993Z,3.40
2017-06-08T09:11:36.211Z,3.50
2017-06-08T09:14:05.393Z,3.37
2017-06-08T09:16:34.023Z,3.20
2017-06-08T09:19:02.228Z,3.63
2017-06-08T09:21:30.589Z,3.97
2017-06-08T09:23:59.139Z,3.80
2017-06-08T09:26:27.337Z,3.90
2017-06-08T09:28:55.563Z,3.63
2017-06-08T09:31:24.221Z,5.50
2017-06-08T09:33:52.422Z,4.23
2017-06-08T09:36:21.387Z,4.20
2017-06-08T09:38:49.969Z,3.90
2017-06-08T09:41:18.244Z,3.50
2017-06-08T09:43:46.457Z,4.10
2017-06-08T09:46:14.998Z,3.67
2017-06-08T09:48:43.240Z,4.27
2017-06-08T09:51:11.414Z,3.90
2017-06-08T09:53:40.126Z,3.23
2017-06-08T09:56:08.339Z,4.60
2017-06-08T09:58:36.623Z,4.07
2017-06-08T10:01:05.210Z,4.17
2017-06-08T10:03:33.446Z,4.10
2017-06-08T10:06:01.649Z,4.40
2017-06-08T10:08:30.298Z,5.03
2017-06-08T10:10:58.507Z,4.27
2017-06-08T10:13:26.702Z,4.20
2017-06-08T10:15:55.328Z,6.07
2017-06-08T10:18:23.510Z,5.00
2017-06-08T10:20:51.845Z,4.93
2017-06-08T10:23:20.400Z,5.60
2017-06-08T10:25:48.598Z,5.70
2017-06-08T10:28:16.819Z,5.07
2017-06-08T10:30:45.361Z,5.10
2017-06-08T10:33:13.548Z,4.57
2017-06-08T10:35:41.829Z,4.53
2017-06-08T10:38:10.455Z,4.57
2017-06-08T10:40:39.474Z,5.40
2017-06-08T10:43:07.683Z,4.97
2017-06-08T10:45:36.199Z,4.70
2017-06-08T10:48:04.439Z,5.47
2017-06-08T10:50:32.789Z,5.03
2017-06-08T10:53:01.503Z,6.00
2017-06-08T10:55:29.747Z,5.80
2017-06-08T10:57:57.962Z,4.90
2017-06-08T11:00:26.632Z,5.50
2017-06-08T11:02:55.621Z,6.70
2017-06-08T11:05:23.875Z,5.40
2017-06-08T11:07:52.579Z,5.07
2017-06-08T11:10:20.786Z,4.63
2017-06-08T11:12:49.816Z,5.73
2017-06-08T11:15:18.453Z,6.33
2017-06-08T11:17:46.777Z,5.53
2017-06-08T11:20:14.957Z,5.90
2017-06-08T11:22:43.537Z,5.67
2017-06-08T11:25:11.764Z,5.33
2017-06-08T11:27:39.959Z,6.13
2017-06-08T11:30:08.815Z,4.90
2017-06-08T11:32:37.031Z,5.57
2017-06-08T11:35:05.231Z,4.87
2017-06-08T11:37:33.933Z,5.20
2017-06-08T11:40:02.133Z,5.33
2017-06-08T11:42:30.376Z,5.10
2017-06-08T11:44:59.211Z,5.57
2017-06-08T11:47:27.566Z,5.40
2017-06-08T11:49:55.801Z,5.33
2017-06-08T11:52:24.464Z,5.57
2017-06-08T11:54:52.685Z,5.50
2017-06-08T11:57:20.992Z,4.60
2017-06-08T11:59:49.746Z,4.87
2017-06-08T12:02:17.949Z,4.70
2017-06-08T12:04:46.145Z,4.77
2017-06-08T12:07:14.882Z,4.87
2017-06-08T12:09:43.177Z,4.70
2017-06-08T12:12:11.406Z,3.60
2017-06-08T12:14:39.951Z,3.90
2017-06-08T12:17:08.251Z,4.00
2017-06-08T12:19:36.531Z,3.77
2017-06-08T12:22:05.122Z,4.07
2017-06-08T12:24:33.322Z,3.83
2017-06-08T12:27:01.568Z,4.43
2017-06-08T12:29:30.310Z,4.53
2017-06-08T12:31:58.513Z,3.80
2017-06-08T12:34:26.701Z,4.87
2017-06-08T12:36:55.352Z,5.20
2017-06-08T12:39:23.593Z,5.20
2017-06-08T12:41:51.789Z,4.97
2017-06-08T12:44:20.468Z,4.77
2017-06-08T12:46:48.677Z,6.60
2017-06-08T12:49:16.881Z,6.00
2017-06-08T12:51:45.431Z,6.33
2017-06-08T12:54:13.619Z,7.67
2017-06-08T12:56:41.848Z,6.40
2017-06-08T12:59:11.319Z,7.43
2017-06-08T13:01:39.660Z,8.90
2017-06-08T13:04:07.971Z,8.40
2017-06-08T13:06:36.565Z,10.63
2017-06-08T13:09:05.750Z,9.37
2017-06-08T13:11:33.976Z,10.37
2017-06-08T13:14:02.515Z,9.90
2017-06-08T13:16:30.839Z,10.20
2017-06-08T13:18:59.046Z,11.37
2017-06-08T13:21:27.687Z,11.27
2017-06-08T13:23:55.988Z,12.03
2017-06-08T13:26:24.201Z,11.70
2017-06-08T13:28:52.770Z,12.03
2017-06-08T13:31:20.982Z,12.00
2017-06-08T13:33:49.197Z,11.20
2017-06-08T13:36:19.202Z,12.17
2017-06-08T13:38:47.427Z,10.57
2017-06-08T13:41:15.626Z,12.17
2017-06-08T13:43:44.184Z,13.00
2017-06-08T13:46:13.139Z,11.93
2017-06-08T13:48:41.482Z,11.70
2017-06-08T13:51:10.058Z,12.63
2017-06-08T13:53:38.356Z,12.50
2017-06-08T13:56:06.563Z,12.80
2017-06-08T13:58:35.351Z,11.03
2017-06-08T14:01:03.547Z,13.13
2017-06-08T14:03:31.762Z,12.50
2017-06-08T14:06:00.294Z,12.80
2017-06-08T14:08:28.487Z,12.43
2017-06-08T14:10:57.429Z,10.77
2017-06-08T14:13:25.997Z,10.90
2017-06-08T14:15:55.214Z,12.50
2017-06-08T14:18:23.436Z,10.33
2017-06-08T14:20:52.066Z,11.00
2017-06-08T14:23:20.352Z,11.23
2017-06-08T14:25:48.550Z,10.10
2017-06-08T14:28:17.295Z,10.80
2017-06-08T14:30:45.607Z,10.17
2017-06-08T14:33:13.847Z,9.70
2017-06-08T14:35:42.442Z,11.30
2017-06-08T14:38:10.638Z,10.60
2017-06-08T14:40:38.847Z,10.20
2017-06-08T14:43:07.546Z,10.20
2017-06-08T14:45:35.736Z,9.27
2017-06-08T14:48:03.950Z,10.13
2017-06-08T14:50:32.554Z,9.30
2017-06-08T14:53:00.815Z,10.00
2017-06-08T14:55:29.031Z,9.60
2017-06-08T14:57:57.590Z,9.77
2017-06-08T15:00:25.832Z,10.10
2017-06-08T15:02:54.213Z,9.20
2017-06-08T15:05:23.335Z,11.10
2017-06-08T15:07:51.702Z,10.03
2017-06-08T15:10:19.931Z,9.83
2017-06-08T15:12:48.566Z,9.47
2017-06-08T15:15:16.770Z,10.53
2017-06-08T15:17:44.971Z,11.43
2017-06-08T15:20:13.534Z,12.10
2017-06-08T15:22:41.730Z,10.03
2017-06-08T15:25:09.951Z,11.50
2017-06-08T15:27:38.528Z,10.40
2017-06-08T15:30:06.777Z,11.20
2017-06-08T15:32:35.743Z,11.53
2017-06-08T15:35:04.324Z,13.00
2017-06-08T15:37:32.526Z,12.00
2017-06-08T15:40:01.490Z,12.27
2017-06-08T15:42:30.089Z,12.67
2017-06-08T15:44:58.350Z,11.77
2017-06-08T15:47:26.565Z,12.10
2017-06-08T15:49:55.280Z,12.57
2017-06-08T15:52:23.447Z,12.47
2017-06-08T15:54:51.813Z,11.70
2017-06-08T15:57:20.551Z,10.97
2017-06-08T15:59:48.759Z,11.50
2017-06-08T16:02:16.970Z,12.00
2017-06-08T16:04:45.604Z,11.57
2017-06-08T16:07:14.657Z,10.20
2017-06-08T16:09:42.850Z,11.97
2017-06-08T16:12:11.414Z,12.53
2017-06-08T16:14:39.623Z,11.77
2017-06-08T16:17:07.834Z,11.83
2017-06-08T16:19:36.394Z,12.57
2017-06-08T16:22:05.405Z,11.07
2017-06-08T16:24:33.591Z,12.00
2017-06-08T16:27:02.132Z,10.80
2017-06-08T16:29:31.163Z,10.97
2017-06-08T16:31:59.423Z,10.17
2017-06-08T16:34:28.187Z,11.87
2017-06-08T16:36:56.443Z,11.47
2017-06-08T16:39:24.669Z,10.23
2017-06-08T16:41:53.202Z,10.20
2017-06-08T16:44:21.454Z,10.20
2017-06-08T16:46:49.727Z,11.27
2017-06-08T16:49:18.335Z,8.37
2017-06-08T16:51:46.557Z,11.00
2017-06-08T16:54:14.741Z,8.97
2017-06-08T16:56:43.355Z,10.00
2017-06-08T16:59:11.593Z,9.33
2017-06-08T17:01:39.813Z,9.47
2017-06-08T17:04:08.415Z,9.10
2017-06-08T17:06:37.399Z,8.53
2017-06-08T17:09:06.416Z,9.07
2017-06-08T17:11:35.056Z,8.60
2017-06-08T17:14:03.259Z,10.23
2017-06-08T17:16:31.500Z,7.70
2017-06-08T17:19:00.130Z,8.33
2017-06-08T17:21:28.335Z,7.90
2017-06-08T17:23:56.541Z,8.40
2017-06-08T17:26:25.126Z,7.57
2017-06-08T17:28:53.457Z,13.97
2017-06-08T17:31:21.726Z,10.43
2017-06-08T17:33:50.295Z,7.47
2017-06-08T17:36:18.492Z,7.07
2017-06-08T17:38:46.778Z,7.53
2017-06-08T17:41:15.391Z,7.10
2017-06-08T17:43:43.656Z,6.90
2017-06-08T17:46:11.863Z,8.20
2017-06-08T17:48:40.527Z,6.87
2017-06-08T17:51:09.539Z,7.00
2017-06-08T17:53:37.774Z,6.97
2017-06-08T17:56:06.342Z,6.13
2017-06-08T17:58:34.606Z,7.23
2017-06-08T18:01:02.803Z,6.20
2017-06-08T18:03:31.377Z,6.30
2017-06-08T18:05:59.572Z,6.27
2017-06-08T18:08:27.783Z,6.90
2017-06-08T18:10:56.328Z,6.80
2017-06-08T18:13:24.568Z,5.93
2017-06-08T18:15:52.898Z,6.47
2017-06-08T18:18:21.705Z,6.77
2017-06-08T18:20:49.910Z,7.17
2017-06-08T18:23:18.284Z,7.23
2017-06-08T18:25:46.867Z,6.33
2017-06-08T18:28:15.210Z,6.70
2017-06-08T18:30:43.424Z,6.30
2017-06-08T18:33:12.030Z,6.10
2017-06-08T18:35:40.216Z,5.93
2017-06-08T18:38:08.426Z,5.80
2017-06-08T18:40:37.196Z,6.00
2017-06-08T18:43:05.445Z,7.27
2017-06-08T18:45:33.636Z,7.23
2017-06-08T18:48:02.194Z,9.47
2017-06-08T18:50:30.390Z,7.50
2017-06-08T18:52:58.647Z,7.07
2017-06-08T18:55:27.254Z,5.73
2017-06-08T18:57:55.472Z,6.00
2017-06-08T19:00:23.707Z,5.90
2017-06-08T19:02:52.259Z,6.13
2017-06-08T19:05:21.327Z,7.90
2017-06-08T19:07:49.543Z,9.87
2017-06-08T19:10:18.891Z,5.67
2017-06-08T19:12:47.162Z,6.10
2017-06-08T19:15:15.379Z,4.63
2017-06-08T19:17:43.954Z,5.20
2017-06-08T19:20:12.212Z,4.47
2017-06-08T19:22:40.441Z,5.10
2017-06-08T19:25:09.017Z,5.63
2017-06-08T19:27:37.257Z,6.13
2017-06-08T19:30:05.489Z,16.07
2017-06-08T19:32:34.031Z,5.90
2017-06-08T19:35:03.055Z,18.10
2017-06-08T19:37:31.263Z,5.40
2017-06-08T19:39:59.843Z,5.50
2017-06-08T19:42:28.094Z,5.43
2017-06-08T19:44:56.307Z,5.30
2017-06-08T19:47:25.013Z,4.67
2017-06-08T19:49:54.014Z,5.00
2017-06-08T19:52:22.252Z,5.47
2017-06-08T19:54:51.651Z,4.70
2017-06-08T19:57:19.861Z,4.23
2017-06-08T19:59:48.856Z,5.07
2017-06-08T20:02:18.248Z,4.20
2017-06-08T20:04:46.491Z,6.87
2017-06-08T20:07:14.738Z,5.40
2017-06-08T20:09:43.396Z,4.23
2017-06-08T20:12:12.368Z,4.23
2017-06-08T20:14:40.590Z,4.20
2017-06-08T20:17:09.229Z,4.30
2017-06-08T20:19:37.447Z,4.47
2017-06-08T20:22:05.659Z,4.33
2017-06-08T20:24:34.185Z,4.83
2017-06-08T20:27:02.399Z,5.30
2017-06-08T20:29:30.625Z,5.37
2017-06-08T20:31:59.234Z,7.60
2017-06-08T20:34:27.539Z,5.70
2017-06-08T20:36:55.833Z,8.47
2017-06-08T20:39:24.417Z,5.87
2017-06-08T20:41:52.584Z,5.33
2017-06-08T20:44:20.794Z,5.50
2017-06-08T20:46:49.346Z,5.87
2017-06-08T20:49:17.571Z,6.17
2017-06-08T20:51:45.799Z,5.53
2017-06-08T20:54:14.468Z,5.27
2017-06-08T20:56:42.710Z,6.43
2017-06-08T20:59:10.942Z,6.50
2017-06-08T21:01:39.498Z,23.50
2017-06-08T21:04:07.743Z,6.63
2017-06-08T21:06:35.931Z,7.13
2017-06-08T21:09:04.685Z,6.10
2017-06-08T21:11:32.886Z,8.00
2017-06-08T21:14:01.102Z,7.60
2017-06-08T21:16:29.793Z,6.70
2017-06-08T21:18:57.973Z,6.00
2017-06-08T21:21:26.984Z,5.97
2017-06-08T21:23:55.728Z,5.40
2017-06-08T21:26:23.940Z,6.13
2017-06-08T21:28:52.151Z,6.70
2017-06-08T21:31:20.712Z,6.50
2017-06-08T21:33:48.955Z,5.20
2017-06-08T21:36:17.933Z,5.00
2017-06-08T21:38:47.326Z,5.83
2017-06-08T21:41:15.621Z,5.40
2017-06-08T21:43:43.883Z,5.57
2017-06-08T21:46:12.410Z,5.23
2017-06-08T21:48:40.610Z,5.23
2017-06-08T21:51:08.817Z,5.50
2017-06-08T21:53:38.155Z,5.53
2017-06-08T21:56:06.360Z,5.53
2017-06-08T21:58:34.584Z,5.10
2017-06-08T22:01:03.162Z,4.43
2017-06-08T22:03:31.399Z,5.47
2017-06-08T22:05:59.624Z,6.10
2017-06-08T22:08:28.198Z,5.83
2017-06-08T22:10:56.421Z,4.77
2017-06-08T22:13:24.651Z,5.00
2017-06-08T22:15:53.269Z,5.23
2017-06-08T22:18:21.566Z,5.60
2017-06-08T22:20:49.758Z,5.13
2017-06-08T22:23:19.141Z,5.07
2017-06-08T22:25:47.377Z,5.00
2017-06-08T22:28:15.588Z,5.60
2017-06-08T22:30:44.156Z,5.20
2017-06-08T22:33:12.365Z,5.23
2017-06-08T22:35:41.327Z,5.73
2017-06-08T22:38:09.927Z,5.37
2017-06-08T22:40:38.125Z,6.20
2017-06-08T22:43:06.354Z,6.80
2017-06-08T22:45:34.931Z,6.60
2017-06-08T22:48:03.123Z,5.50
2017-06-08T22:50:31.333Z,6.53
2017-06-08T22:52:59.891Z,6.30
2017-06-08T22:55:28.075Z,5.87
2017-06-08T22:57:56.242Z,6.00
2017-06-08T23:00:25.622Z,5.97
2017-06-08T23:02:53.859Z,5.93
2017-06-08T23:05:22.110Z,6.60
2017-06-08T23:07:50.671Z,6.10
2017-06-08T23:10:19.627Z,6.37
2017-06-08T23:12:47.842Z,5.60
2017-06-08T23:15:23.037Z,6.83
2017-06-08T23:17:52.842Z,6.50
2017-06-08T23:20:21.427Z,6.70
2017-06-08T23:22:49.650Z,6.50
2017-06-08T23:25:17.873Z,6.77
2017-06-08T23:27:54.047Z,7.67
2017-06-08T23:30:22.231Z,6.83
2017-06-08T23:32:50.429Z,8.03
2017-06-08T23:35:18.952Z,7.40
2017-06-08T23:37:47.132Z,7.47
2017-06-08T23:40:15.367Z,7.87
2017-06-08T23:42:43.878Z,7.57
2017-06-08T23:45:12.087Z,7.43
2017-06-08T23:47:40.265Z,7.70
2017-06-08T23:50:08.817Z,7.37
2017-06-08T23:52:37.015Z,7.93
2017-06-08T23:55:05.211Z,7.70
2017-06-08T23:57:34.539Z,8.00
